DAAJ/DJG METAR and TAF weather

Enter ICAO airport designator
Station Type Date Time Source
DAAJ METAR 2021/07/28 03:00 UTC NOAA

DAAJ 280300Z 10011KT CAVOK 27/M02 Q1015


Station Type Date Time Source
DAAJ Decoded METAR 2021/07/28 03:00 UTC NOAA

Djanet, Algeria (DAAJ) 24-33N 009-28E 1054M
Jul 27, 2021 - 11:00 PM EDT / 2021.07.28 0300 UTC
Wind: from the E (100 degrees) at 13 MPH (11 KT):0
Visibility: greater than 7 mile(s):0
Temperature: 80 F (27 C)
Dew Point: 28 F (-2 C)
Relative Humidity: 14%
Pressure (altimeter): 29.97 in. Hg (1015 hPa)
ob: DAAJ 280300Z 10011KT CAVOK 27/M02 Q1015
cycle: 3

Station Type Date Time Source
DAAJ TAF 2021/07/27 18:33 UTC NOAA

TAF DAAJ 271700Z 2718/2818 18008KT CAVOK

Example: see airport list